<?xml version="1.0" encoding="UTF-8" standalone="no" ?>
<gpx xmlns="http://www.topografix.com/GPX/1/1" xmlns:xsi="http://www.w3.org/2001/XMLSchema-instance" xsi:schemaLocation="http://www.topografix.com/GPX/1/1 http://www.topografix.com/GPX/1/1/gpx.xsd" version="1.1" creator="VisuGPX - https://www.visugpx.com">
  <metadata>
    <name>cascade Cerveyrieu</name>
    <desc><![CDATA[Ain - Bugey.
Boucle au départ de la cascade de Cerveyrieu.
Passage par les gorges de Turignin.]]></desc>
  </metadata>
  <trk>
    <name><![CDATA[11871327-cascade Cerveyrieu]]></name>
    <trkseg>
      <trkpt lat="45.88011" lon="5.67838">
        <ele>371</ele>
        <time>2020-08-15T09:44:04Z</time>
      </trkpt>
      <trkpt lat="45.88082" lon="5.67784">
        <ele>380</ele>
        <time>2020-08-15T09:45:51Z</time>
      </trkpt>
      <trkpt lat="45.88098" lon="5.67743">
        <ele>380</ele>
        <time>2020-08-15T09:46:35Z</time>
      </trkpt>
      <trkpt lat="45.88126" lon="5.67703">
        <ele>388</ele>
        <time>2020-08-15T09:47:28Z</time>
      </trkpt>
      <trkpt lat="45.88179" lon="5.67663">
        <ele>393</ele>
        <time>2020-08-15T09:48:47Z</time>
      </trkpt>
      <trkpt lat="45.88197" lon="5.67645">
        <ele>393</ele>
        <time>2020-08-15T09:49:17Z</time>
      </trkpt>
      <trkpt lat="45.8825" lon="5.67563">
        <ele>385</ele>
        <time>2020-08-15T09:51:01Z</time>
      </trkpt>
      <trkpt lat="45.88251" lon="5.67534">
        <ele>384</ele>
        <time>2020-08-15T09:51:28Z</time>
      </trkpt>
      <trkpt lat="45.88214" lon="5.6747">
        <ele>389</ele>
        <time>2020-08-15T09:52:45Z</time>
      </trkpt>
      <trkpt lat="45.88155" lon="5.6743">
        <ele>392</ele>
        <time>2020-08-15T09:54:12Z</time>
      </trkpt>
      <trkpt lat="45.88123" lon="5.67376">
        <ele>385</ele>
        <time>2020-08-15T09:55:18Z</time>
      </trkpt>
      <trkpt lat="45.88121" lon="5.67328">
        <ele>380</ele>
        <time>2020-08-15T09:56:03Z</time>
      </trkpt>
      <trkpt lat="45.88121" lon="5.67271">
        <ele>379</ele>
        <time>2020-08-15T09:56:55Z</time>
      </trkpt>
      <trkpt lat="45.88142" lon="5.6724">
        <ele>382</ele>
        <time>2020-08-15T09:57:36Z</time>
      </trkpt>
      <trkpt lat="45.88194" lon="5.67198">
        <ele>389</ele>
        <time>2020-08-15T09:58:55Z</time>
      </trkpt>
      <trkpt lat="45.88222" lon="5.67144">
        <ele>397</ele>
        <time>2020-08-15T09:59:58Z</time>
      </trkpt>
      <trkpt lat="45.88227" lon="5.67119">
        <ele>400</ele>
        <time>2020-08-15T10:00:22Z</time>
      </trkpt>
      <trkpt lat="45.88222" lon="5.67073">
        <ele>404</ele>
        <time>2020-08-15T10:01:05Z</time>
      </trkpt>
      <trkpt lat="45.88202" lon="5.66893">
        <ele>410</ele>
        <time>2020-08-15T10:03:55Z</time>
      </trkpt>
      <trkpt lat="45.88205" lon="5.66843">
        <ele>413</ele>
        <time>2020-08-15T10:04:41Z</time>
      </trkpt>
      <trkpt lat="45.88233" lon="5.66866">
        <ele>416</ele>
        <time>2020-08-15T10:05:24Z</time>
      </trkpt>
      <trkpt lat="45.88264" lon="5.66885">
        <ele>420</ele>
        <time>2020-08-15T10:06:09Z</time>
      </trkpt>
      <trkpt lat="45.88299" lon="5.66943">
        <ele>419</ele>
        <time>2020-08-15T10:07:21Z</time>
      </trkpt>
      <trkpt lat="45.88338" lon="5.66983">
        <ele>418</ele>
        <time>2020-08-15T10:08:24Z</time>
      </trkpt>
      <trkpt lat="45.88429" lon="5.67062">
        <ele>419</ele>
        <time>2020-08-15T10:10:46Z</time>
      </trkpt>
      <trkpt lat="45.88461" lon="5.67085">
        <ele>416</ele>
        <time>2020-08-15T10:11:34Z</time>
      </trkpt>
      <trkpt lat="45.88487" lon="5.67087">
        <ele>416</ele>
        <time>2020-08-15T10:12:09Z</time>
      </trkpt>
      <trkpt lat="45.88542" lon="5.67073">
        <ele>419</ele>
        <time>2020-08-15T10:13:23Z</time>
      </trkpt>
      <trkpt lat="45.88613" lon="5.67092">
        <ele>413</ele>
        <time>2020-08-15T10:15:00Z</time>
      </trkpt>
      <trkpt lat="45.88677" lon="5.67084">
        <ele>412</ele>
        <time>2020-08-15T10:16:26Z</time>
      </trkpt>
      <trkpt lat="45.88701" lon="5.67083">
        <ele>410</ele>
        <time>2020-08-15T10:16:58Z</time>
      </trkpt>
      <trkpt lat="45.88798" lon="5.67064">
        <ele>410</ele>
        <time>2020-08-15T10:19:08Z</time>
      </trkpt>
      <trkpt lat="45.88874" lon="5.67087">
        <ele>407</ele>
        <time>2020-08-15T10:20:52Z</time>
      </trkpt>
      <trkpt lat="45.88937" lon="5.67089">
        <ele>408</ele>
        <time>2020-08-15T10:22:16Z</time>
      </trkpt>
      <trkpt lat="45.89008" lon="5.67061">
        <ele>413</ele>
        <time>2020-08-15T10:23:54Z</time>
      </trkpt>
      <trkpt lat="45.8909" lon="5.67076">
        <ele>412</ele>
        <time>2020-08-15T10:25:44Z</time>
      </trkpt>
      <trkpt lat="45.89153" lon="5.67006">
        <ele>418</ele>
        <time>2020-08-15T10:27:31Z</time>
      </trkpt>
      <trkpt lat="45.89187" lon="5.67026">
        <ele>419</ele>
        <time>2020-08-15T10:28:20Z</time>
      </trkpt>
      <trkpt lat="45.89206" lon="5.67055">
        <ele>421</ele>
        <time>2020-08-15T10:28:57Z</time>
      </trkpt>
      <trkpt lat="45.89228" lon="5.67061">
        <ele>423</ele>
        <time>2020-08-15T10:29:27Z</time>
      </trkpt>
      <trkpt lat="45.89217" lon="5.67133">
        <ele>433</ele>
        <time>2020-08-15T10:30:35Z</time>
      </trkpt>
      <trkpt lat="45.8922" lon="5.67153">
        <ele>437</ele>
        <time>2020-08-15T10:30:54Z</time>
      </trkpt>
      <trkpt lat="45.8925" lon="5.67208">
        <ele>451</ele>
        <time>2020-08-15T10:31:59Z</time>
      </trkpt>
      <trkpt lat="45.89274" lon="5.67237">
        <ele>456</ele>
        <time>2020-08-15T10:32:41Z</time>
      </trkpt>
      <trkpt lat="45.89284" lon="5.67284">
        <ele>459</ele>
        <time>2020-08-15T10:33:27Z</time>
      </trkpt>
      <trkpt lat="45.89322" lon="5.6734">
        <ele>460</ele>
        <time>2020-08-15T10:34:39Z</time>
      </trkpt>
      <trkpt lat="45.89346" lon="5.67391">
        <ele>459</ele>
        <time>2020-08-15T10:35:36Z</time>
      </trkpt>
      <trkpt lat="45.8939" lon="5.67434">
        <ele>459</ele>
        <time>2020-08-15T10:36:47Z</time>
      </trkpt>
      <trkpt lat="45.89383" lon="5.67462">
        <ele>458</ele>
        <time>2020-08-15T10:37:15Z</time>
      </trkpt>
      <trkpt lat="45.89347" lon="5.67549">
        <ele>454</ele>
        <time>2020-08-15T10:38:49Z</time>
      </trkpt>
      <trkpt lat="45.89319" lon="5.67576">
        <ele>452</ele>
        <time>2020-08-15T10:39:34Z</time>
      </trkpt>
      <trkpt lat="45.89307" lon="5.67579">
        <ele>451</ele>
        <time>2020-08-15T10:39:50Z</time>
      </trkpt>
      <trkpt lat="45.89229" lon="5.67607">
        <ele>448</ele>
        <time>2020-08-15T10:41:38Z</time>
      </trkpt>
      <trkpt lat="45.89123" lon="5.67652">
        <ele>444</ele>
        <time>2020-08-15T10:44:05Z</time>
      </trkpt>
      <trkpt lat="45.89054" lon="5.6768">
        <ele>441</ele>
        <time>2020-08-15T10:45:41Z</time>
      </trkpt>
      <trkpt lat="45.89024" lon="5.67694">
        <ele>440</ele>
        <time>2020-08-15T10:46:23Z</time>
      </trkpt>
      <trkpt lat="45.89001" lon="5.67676">
        <ele>439</ele>
        <time>2020-08-15T10:46:58Z</time>
      </trkpt>
      <trkpt lat="45.8898" lon="5.67609">
        <ele>439</ele>
        <time>2020-08-15T10:48:06Z</time>
      </trkpt>
      <trkpt lat="45.88946" lon="5.67567">
        <ele>435</ele>
        <time>2020-08-15T10:49:06Z</time>
      </trkpt>
      <trkpt lat="45.88901" lon="5.67541">
        <ele>432</ele>
        <time>2020-08-15T10:50:11Z</time>
      </trkpt>
      <trkpt lat="45.88863" lon="5.67546">
        <ele>430</ele>
        <time>2020-08-15T10:51:02Z</time>
      </trkpt>
      <trkpt lat="45.88801" lon="5.67576">
        <ele>422</ele>
        <time>2020-08-15T10:52:29Z</time>
      </trkpt>
      <trkpt lat="45.88738" lon="5.67588">
        <ele>418</ele>
        <time>2020-08-15T10:53:54Z</time>
      </trkpt>
      <trkpt lat="45.88686" lon="5.67582">
        <ele>415</ele>
        <time>2020-08-15T10:55:03Z</time>
      </trkpt>
      <trkpt lat="45.88659" lon="5.67591">
        <ele>414</ele>
        <time>2020-08-15T10:55:40Z</time>
      </trkpt>
      <trkpt lat="45.88605" lon="5.6762">
        <ele>414</ele>
        <time>2020-08-15T10:56:57Z</time>
      </trkpt>
      <trkpt lat="45.88538" lon="5.67614">
        <ele>408</ele>
        <time>2020-08-15T10:58:27Z</time>
      </trkpt>
      <trkpt lat="45.88487" lon="5.67655">
        <ele>400</ele>
        <time>2020-08-15T10:59:45Z</time>
      </trkpt>
      <trkpt lat="45.88436" lon="5.67661">
        <ele>394</ele>
        <time>2020-08-15T11:00:53Z</time>
      </trkpt>
      <trkpt lat="45.88421" lon="5.67659">
        <ele>392</ele>
        <time>2020-08-15T11:01:13Z</time>
      </trkpt>
      <trkpt lat="45.8839" lon="5.67649">
        <ele>390</ele>
        <time>2020-08-15T11:01:56Z</time>
      </trkpt>
      <trkpt lat="45.88355" lon="5.67642">
        <ele>388</ele>
        <time>2020-08-15T11:02:43Z</time>
      </trkpt>
      <trkpt lat="45.88299" lon="5.6765">
        <ele>387</ele>
        <time>2020-08-15T11:03:58Z</time>
      </trkpt>
      <trkpt lat="45.88236" lon="5.67695">
        <ele>390</ele>
        <time>2020-08-15T11:05:32Z</time>
      </trkpt>
      <trkpt lat="45.88125" lon="5.67807">
        <ele>392</ele>
        <time>2020-08-15T11:08:33Z</time>
      </trkpt>
      <trkpt lat="45.88051" lon="5.67856">
        <ele>382</ele>
        <time>2020-08-15T11:10:21Z</time>
      </trkpt>
      <trkpt lat="45.88017" lon="5.67872">
        <ele>375</ele>
        <time>2020-08-15T11:11:09Z</time>
      </trkpt>
    </trkseg>
  </trk>
</gpx>